Time;durP1;ratioP1;P1;durP2;ratioP2;P2;SDS_P1;SDS_P2;PMS_P1;PMS_P2;Temp;Humidity;BMP_temperature;BMP_pressure;BME280_temperature;BME280_humidity;BME280_pressure;Samples;Min_cycle;Max_cycle;Signal;HPM_P1;HPM_P2
2022/03/12 00:01:35;;;;;;;16.12;8.63;;;4.20;99.90;;;;;;1876122;75;21051;-81
2022/03/12 00:04:04;;;;;;;14.45;8.50;;;4.10;99.90;;;;;;1874963;75;21075;-81
2022/03/12 00:06:31;;;;;;;12.63;8.28;;;4.10;99.90;;;;;;1860721;75;21516;-81
2022/03/12 00:08:58;;;;;;;15.90;8.08;;;4.10;99.90;;;;;;1860451;75;21069;-81
2022/03/12 00:11:34;;;;;;;14.70;8.30;;;4.10;99.90;;;;;;1869140;75;21075;-81
2022/03/12 00:13:58;;;;;;;15.88;8.70;;;4.10;99.90;;;;;;1861108;75;21508;-80
2022/03/12 00:16:26;;;;;;;12.98;8.38;;;4.20;99.90;;;;;;1868398;75;21459;-81
2022/03/12 00:18:55;;;;;;;13.13;8.08;;;4.10;99.90;;;;;;1861640;75;21064;-82
2022/03/12 00:21:24;;;;;;;13.08;7.72;;;4.10;99.90;;;;;;1877959;75;21152;-81
2022/03/12 00:24:00;;;;;;;12.98;8.50;;;4.00;99.90;;;;;;1864970;75;21461;-82
2022/03/12 00:26:28;;;;;;;12.18;8.13;;;4.10;99.90;;;;;;1871483;76;21173;-80
2022/03/12 00:28:54;;;;;;;17.27;8.78;;;4.00;99.90;;;;;;1876268;75;21176;-82
2022/03/12 00:31:23;;;;;;;22.73;8.58;;;4.00;99.90;;;;;;1865463;76;21071;-81
2022/03/12 00:33:50;;;;;;;15.80;7.37;;;4.00;99.90;;;;;;1863424;76;21238;-81
2022/03/12 00:36:19;;;;;;;13.60;8.25;;;3.90;99.90;;;;;;1869840;75;21129;-81
2022/03/12 00:38:46;;;;;;;10.70;7.12;;;3.90;99.90;;;;;;1866836;75;21125;-80
2022/03/12 00:41:14;;;;;;;12.07;7.55;;;4.00;99.90;;;;;;1872509;75;21506;-80
2022/03/12 00:43:41;;;;;;;14.93;8.25;;;4.00;99.90;;;;;;1860629;75;21418;-81
2022/03/12 00:46:09;;;;;;;13.72;8.28;;;3.90;99.90;;;;;;1868067;74;21099;-81
2022/03/12 00:48:39;;;;;;;13.40;8.23;;;3.90;99.90;;;;;;1864072;75;21073;-81
2022/03/12 00:51:08;;;;;;;16.75;8.50;;;3.90;99.90;;;;;;1860522;75;21205;-83
2022/03/12 00:53:38;;;;;;;14.10;7.83;;;4.00;99.90;;;;;;1863688;75;21087;-81
2022/03/12 00:56:06;;;;;;;12.03;7.37;;;4.00;99.90;;;;;;1866753;75;21079;-79
2022/03/12 00:58:34;;;;;;;9.75;7.28;;;4.00;99.90;;;;;;1861680;75;21147;-79
2022/03/12 01:01:02;;;;;;;10.98;6.53;;;4.00;99.90;;;;;;1859563;75;21484;-80
2022/03/12 01:03:29;;;;;;;12.05;7.53;;;3.90;99.90;;;;;;1859841;75;21128;-80
2022/03/12 01:05:59;;;;;;;9.78;6.85;;;4.00;99.90;;;;;;1867660;75;21152;-81
2022/03/12 01:08:27;;;;;;;12.23;8.20;;;3.90;99.90;;;;;;1865987;75;21463;-81
2022/03/12 01:10:56;;;;;;;14.68;7.60;;;4.00;99.90;;;;;;1871900;75;21083;-81
2022/03/12 01:13:23;;;;;;;13.53;8.30;;;4.10;99.90;;;;;;1866411;76;21075;-81
2022/03/12 01:15:50;;;;;;;10.53;7.33;;;4.10;99.90;;;;;;1871847;76;21167;-82
2022/03/12 01:18:19;;;;;;;16.85;8.18;;;4.00;99.90;;;;;;1859975;76;21069;-82
2022/03/12 01:20:47;;;;;;;14.95;7.95;;;3.90;99.90;;;;;;1868680;75;21141;-81
2022/03/12 01:23:15;;;;;;;15.53;7.67;;;3.90;99.90;;;;;;1865218;75;21471;-83
2022/03/12 01:25:43;;;;;;;13.93;7.70;;;3.90;99.90;;;;;;1865506;75;21084;-81
2022/03/12 01:28:10;;;;;;;10.05;6.65;;;3.90;99.90;;;;;;1859126;75;21069;-80
2022/03/12 01:30:38;;;;;;;14.68;7.00;;;3.90;99.90;;;;;;1859259;75;21073;-81
2022/03/12 01:33:05;;;;;;;14.53;8.20;;;3.90;99.90;;;;;;1862685;75;21441;-81
2022/03/12 01:35:32;;;;;;;14.45;7.67;;;3.90;99.90;;;;;;1859594;75;21134;-81
2022/03/12 01:38:01;;;;;;;16.52;7.65;;;3.90;99.90;;;;;;1859094;75;21089;-81
2022/03/12 01:40:28;;;;;;;13.30;7.22;;;3.90;99.90;;;;;;1861059;75;21056;-81
2022/03/12 01:42:56;;;;;;;10.75;7.37;;;3.90;99.90;;;;;;1869829;76;21048;-81
2022/03/12 01:45:31;;;;;;;10.15;7.10;;;3.90;99.90;;;;;;1865962;75;21046;-82
2022/03/12 01:47:59;;;;;;;10.30;7.12;;;4.00;99.90;;;;;;1864403;75;21090;-81
2022/03/12 01:50:32;;;;;;;12.95;7.08;;;4.00;99.90;;;;;;1868334;76;21075;-81
2022/03/12 01:53:02;;;;;;;23.90;7.45;;;4.00;99.90;;;;;;1862362;75;21480;-80
2022/03/12 01:55:33;;;;;;;9.45;6.75;;;4.10;99.90;;;;;;1864751;75;21134;-82
2022/03/12 01:58:02;;;;;;;12.00;7.00;;;4.10;99.90;;;;;;1866458;75;21097;-83
2022/03/12 02:00:32;;;;;;;9.45;5.97;;;4.10;99.90;;;;;;1871413;75;21090;-82
2022/03/12 02:03:01;;;;;;;10.95;6.78;;;4.20;99.90;;;;;;1870045;75;21133;-83
2022/03/12 02:05:28;;;;;;;9.63;6.97;;;4.20;99.90;;;;;;1869066;75;21154;-83
2022/03/12 02:07:58;;;;;;;13.38;7.00;;;4.30;99.90;;;;;;1867786;75;21071;-80
2022/03/12 02:10:26;;;;;;;11.75;6.45;;;4.20;99.90;;;;;;1858193;75;21083;-82
2022/03/12 02:12:53;;;;;;;10.03;6.67;;;4.10;99.90;;;;;;1861371;75;21073;-81
2022/03/12 02:15:22;;;;;;;17.30;6.95;;;4.10;99.90;;;;;;1866014;75;21205;-81
2022/03/12 02:17:52;;;;;;;9.80;6.80;;;4.10;99.90;;;;;;1874215;75;21136;-79
2022/03/12 02:20:21;;;;;;;10.23;6.97;;;4.10;99.90;;;;;;1870459;76;21128;-79
2022/03/12 02:22:53;;;;;;;9.95;6.37;;;4.10;99.90;;;;;;1872611;75;21525;-82
2022/03/12 02:25:33;;;;;;;15.37;6.93;;;4.10;99.90;;;;;;1864702;75;21135;-82
2022/03/12 02:28:03;;;;;;;13.10;7.55;;;4.10;99.90;;;;;;1863540;75;21075;-82
2022/03/12 02:30:48;;;;;;;17.17;7.57;;;4.00;99.90;;;;;;1861308;75;21132;-79
2022/03/12 02:33:05;;;;;;;17.70;7.30;;;4.00;99.90;;;;;;1856362;75;21507;-82
2022/03/12 02:35:35;;;;;;;12.43;6.70;;;4.00;99.90;;;;;;1868377;75;21457;-80
2022/03/12 02:38:03;;;;;;;11.88;7.03;;;4.00;99.90;;;;;;1865345;75;21078;-80
2022/03/12 02:40:30;;;;;;;20.32;6.97;;;4.00;99.90;;;;;;1864097;76;21196;-80
2022/03/12 02:42:59;;;;;;;14.53;7.05;;;4.00;99.90;;;;;;1864268;75;21149;-80
2022/03/12 02:45:28;;;;;;;9.05;6.72;;;4.00;99.90;;;;;;1863966;75;21176;-82
2022/03/12 02:47:56;;;;;;;11.53;7.37;;;4.00;99.90;;;;;;1862393;75;21172;-82
2022/03/12 02:50:23;;;;;;;8.93;6.12;;;4.00;99.90;;;;;;1863165;75;21443;-80
2022/03/12 02:52:51;;;;;;;10.40;6.85;;;3.80;99.90;;;;;;1863649;75;21188;-81
2022/03/12 02:55:23;;;;;;;15.80;7.05;;;3.90;99.90;;;;;;1859862;75;21215;-81
2022/03/12 02:57:51;;;;;;;13.05;7.03;;;4.00;99.90;;;;;;1873896;75;21129;-81
2022/03/12 03:00:20;;;;;;;16.80;7.15;;;3.90;99.90;;;;;;1866458;75;21132;-80
2022/03/12 03:02:52;;;;;;;14.63;7.40;;;3.80;99.90;;;;;;1871252;75;21135;-81
2022/03/12 03:05:44;;;;;;;14.47;7.45;;;3.90;99.90;;;;;;1865724;75;21100;-81
2022/03/12 03:07:57;;;;;;;18.20;7.75;;;3.80;99.90;;;;;;1857807;76;21475;-82
2022/03/12 03:10:36;;;;;;;13.40;6.53;;;3.80;99.90;;;;;;1866025;75;21076;-82
2022/03/12 03:13:21;;;;;;;14.00;7.35;;;3.70;99.90;;;;;;1867294;76;21221;-81
2022/03/12 03:15:54;;;;;;;11.12;7.22;;;3.60;99.90;;;;;;1859311;75;21042;-81
2022/03/12 03:18:24;;;;;;;13.08;7.45;;;3.70;99.90;;;;;;1868614;75;21098;-81
2022/03/12 03:20:54;;;;;;;9.88;7.05;;;3.70;99.90;;;;;;1865221;75;21504;-82
2022/03/12 03:23:26;;;;;;;16.85;7.35;;;3.70;99.90;;;;;;1859252;75;21077;-82
2022/03/12 03:25:53;;;;;;;10.23;6.90;;;3.60;99.90;;;;;;1859258;75;21507;-81
2022/03/12 03:28:21;;;;;;;11.63;7.37;;;3.60;99.90;;;;;;1865439;75;21145;-80
2022/03/12 03:30:48;;;;;;;12.68;6.47;;;3.60;99.90;;;;;;1873509;76;21152;-80
2022/03/12 03:33:18;;;;;;;10.88;7.00;;;3.60;99.90;;;;;;1864317;75;21071;-80
2022/03/12 03:35:45;;;;;;;12.58;7.60;;;3.50;99.90;;;;;;1864810;76;21548;-81
2022/03/12 03:38:13;;;;;;;10.23;7.28;;;3.50;99.90;;;;;;1864689;75;21148;-79
2022/03/12 03:40:41;;;;;;;18.80;7.85;;;3.50;99.90;;;;;;1866402;75;21140;-81
2022/03/12 03:43:14;;;;;;;11.70;7.17;;;3.50;99.90;;;;;;1859286;75;21054;-80
2022/03/12 03:45:43;;;;;;;8.60;6.70;;;3.60;99.90;;;;;;1859359;75;21147;-80
2022/03/12 03:48:12;;;;;;;15.88;7.97;;;3.60;99.90;;;;;;1868696;75;21099;-81
2022/03/12 03:50:40;;;;;;;10.50;7.30;;;3.60;99.90;;;;;;1874303;76;21516;-80
2022/03/12 03:53:07;;;;;;;14.10;6.58;;;3.60;99.90;;;;;;1863124;75;21071;-80
2022/03/12 03:55:35;;;;;;;13.05;7.83;;;3.50;99.90;;;;;;1860205;76;21551;-81
2022/03/12 03:58:03;;;;;;;10.38;7.80;;;3.50;99.90;;;;;;1869332;75;21117;-81
2022/03/12 04:00:33;;;;;;;9.98;6.92;;;3.50;99.90;;;;;;1875909;76;21154;-81
2022/03/12 04:03:04;;;;;;;11.43;7.33;;;3.50;99.90;;;;;;1871850;76;21083;-79
2022/03/12 04:05:34;;;;;;;11.20;7.30;;;3.50;99.90;;;;;;1868034;76;21185;-81
2022/03/12 04:08:01;;;;;;;18.27;7.17;;;3.40;99.90;;;;;;1862852;75;21139;-81
2022/03/12 04:10:29;;;;;;;11.90;7.42;;;3.40;99.90;;;;;;1859188;75;21065;-82
2022/03/12 04:12:57;;;;;;;8.83;6.62;;;3.40;99.90;;;;;;1869248;75;21067;-81
2022/03/12 04:15:25;;;;;;;18.52;6.83;;;3.30;99.90;;;;;;1870479;75;21217;-80
2022/03/12 04:17:53;;;;;;;10.28;7.17;;;3.30;99.90;;;;;;1863066;75;21158;-81
2022/03/12 04:20:21;;;;;;;11.63;6.78;;;3.20;99.90;;;;;;1864049;75;21215;-82
2022/03/12 04:22:50;;;;;;;19.73;7.05;;;3.10;99.90;;;;;;1860107;75;21077;-82
2022/03/12 04:25:18;;;;;;;10.23;6.65;;;3.10;99.90;;;;;;1874366;75;21141;-81
2022/03/12 04:27:45;;;;;;;10.85;6.33;;;3.10;99.90;;;;;;1863818;75;21059;-81
2022/03/12 04:30:14;;;;;;;12.10;7.00;;;3.10;99.90;;;;;;1865589;75;21065;-81
2022/03/12 04:32:46;;;;;;;14.10;6.95;;;3.10;99.90;;;;;;1859474;75;21439;-81
2022/03/12 04:35:10;;;;;;;9.63;6.53;;;3.10;99.90;;;;;;1859653;76;21407;-80
2022/03/12 04:37:38;;;;;;;10.72;6.62;;;3.00;99.90;;;;;;1859520;75;21065;-82
2022/03/12 04:40:11;;;;;;;13.70;6.95;;;3.00;99.90;;;;;;1859163;75;21050;-80
2022/03/12 04:42:43;;;;;;;10.28;6.50;;;3.00;99.90;;;;;;1870600;76;21087;-81
2022/03/12 04:45:09;;;;;;;24.30;7.67;;;2.90;99.90;;;;;;1872056;76;21194;-80
2022/03/12 04:47:36;;;;;;;14.20;7.03;;;2.90;99.90;;;;;;1871791;76;21188;-80
2022/03/12 04:50:05;;;;;;;12.45;7.03;;;2.90;99.90;;;;;;1870016;75;21142;-79
2022/03/12 04:52:33;;;;;;;16.65;7.25;;;2.80;99.90;;;;;;1865883;75;21070;-81
2022/03/12 04:55:01;;;;;;;16.02;7.20;;;2.80;99.90;;;;;;1869205;76;21086;-81
2022/03/12 04:57:28;;;;;;;16.67;7.00;;;2.80;99.90;;;;;;1840798;77;21170;-82
2022/03/12 04:59:55;;;;;;;12.07;7.17;;;2.80;99.90;;;;;;1863235;75;21124;-82
2022/03/12 05:02:22;;;;;;;16.62;8.53;;;2.80;99.90;;;;;;1863136;75;21071;-80
2022/03/12 05:04:50;;;;;;;13.53;7.95;;;2.80;99.90;;;;;;1868822;75;21450;-81
2022/03/12 05:07:17;;;;;;;14.63;8.08;;;2.80;99.90;;;;;;1867700;75;21077;-80
2022/03/12 05:09:45;;;;;;;12.53;7.95;;;2.80;99.90;;;;;;1871157;76;21071;-81
2022/03/12 05:12:12;;;;;;;12.20;8.13;;;2.80;99.90;;;;;;1869433;76;21076;-79
2022/03/12 05:14:40;;;;;;;14.45;7.90;;;2.80;99.90;;;;;;1866371;76;21133;-81
2022/03/12 05:17:08;;;;;;;11.70;6.72;;;2.80;99.90;;;;;;1859154;75;21050;-81
2022/03/12 05:19:36;;;;;;;16.27;7.53;;;2.90;99.90;;;;;;1862681;75;21058;-78
2022/03/12 05:22:05;;;;;;;10.18;7.75;;;2.90;99.90;;;;;;1861699;75;21135;-78
2022/03/12 05:24:32;;;;;;;13.00;7.75;;;3.00;99.90;;;;;;1864003;75;21079;-78
2022/03/12 05:27:00;;;;;;;10.58;6.92;;;3.00;99.90;;;;;;1867275;76;21497;-80
2022/03/12 05:29:30;;;;;;;12.63;7.53;;;3.10;99.90;;;;;;1859957;75;21140;-82
2022/03/12 05:31:57;;;;;;;10.63;6.92;;;3.10;99.90;;;;;;1863148;75;21265;-81
2022/03/12 05:34:24;;;;;;;12.82;8.08;;;3.10;99.90;;;;;;1863117;76;21534;-80
2022/03/12 05:36:52;;;;;;;11.88;7.25;;;3.10;99.90;;;;;;1861287;75;21516;-80
2022/03/12 05:39:20;;;;;;;12.37;7.62;;;3.10;99.90;;;;;;1861090;75;21071;-80
2022/03/12 05:41:48;;;;;;;18.17;7.53;;;3.10;99.90;;;;;;1865436;75;21134;-81
2022/03/12 05:44:16;;;;;;;10.23;7.20;;;3.10;99.90;;;;;;1869667;76;21085;-81
2022/03/12 05:46:44;;;;;;;11.00;6.70;;;3.10;99.90;;;;;;1862446;75;21069;-80
2022/03/12 05:49:11;;;;;;;10.98;6.58;;;3.10;99.90;;;;;;1859078;75;21585;-80
2022/03/12 05:51:39;;;;;;;11.55;7.22;;;3.20;99.90;;;;;;1866045;75;21198;-80
2022/03/12 05:54:07;;;;;;;12.88;7.35;;;3.20;99.90;;;;;;1870819;75;21251;-80
2022/03/12 05:56:35;;;;;;;11.08;7.12;;;3.20;99.90;;;;;;1871730;75;21521;-81
2022/03/12 05:59:03;;;;;;;19.67;7.90;;;3.10;99.90;;;;;;1862626;75;21156;-82
2022/03/12 06:01:30;;;;;;;9.78;6.95;;;3.10;99.90;;;;;;1855724;75;21518;-80
2022/03/12 06:04:00;;;;;;;13.45;7.25;;;3.10;99.90;;;;;;1866380;75;21083;-81
2022/03/12 06:06:32;;;;;;;13.13;7.60;;;3.10;99.90;;;;;;1879584;75;21173;-80
2022/03/12 06:08:57;;;;;;;12.47;7.40;;;3.10;99.90;;;;;;1863631;75;21256;-82
2022/03/12 06:11:29;;;;;;;14.38;7.37;;;3.20;99.90;;;;;;1870717;74;21194;-81
2022/03/12 06:14:00;;;;;;;13.72;7.65;;;3.20;99.90;;;;;;1872432;73;21115;-80
2022/03/12 06:16:28;;;;;;;10.05;7.08;;;3.20;99.90;;;;;;1866638;75;21197;-80
2022/03/12 06:18:55;;;;;;;12.00;6.97;;;3.30;99.90;;;;;;1867703;76;21516;-80
2022/03/12 06:21:23;;;;;;;13.22;6.95;;;3.30;99.90;;;;;;1873721;75;21067;-81
2022/03/12 06:23:51;;;;;;;10.63;6.60;;;3.40;99.90;;;;;;1859023;75;21434;-80
2022/03/12 06:26:18;;;;;;;17.50;8.15;;;3.40;99.90;;;;;;1861971;75;21144;-79
2022/03/12 06:28:46;;;;;;;13.83;7.10;;;3.50;99.90;;;;;;1864427;76;21466;-80
2022/03/12 06:31:13;;;;;;;14.53;6.95;;;3.60;99.90;;;;;;1859748;76;21154;-80
2022/03/12 06:33:42;;;;;;;12.03;6.80;;;3.60;99.90;;;;;;1866130;75;21604;-80
2022/03/12 06:36:12;;;;;;;12.05;6.95;;;3.70;99.90;;;;;;1871784;76;21090;-82
2022/03/12 06:38:38;;;;;;;12.82;6.35;;;3.70;99.90;;;;;;1866003;75;21172;-80
2022/03/12 06:41:06;;;;;;;10.03;6.40;;;3.80;99.90;;;;;;1868719;76;21078;-80
2022/03/12 06:43:33;;;;;;;9.50;6.22;;;3.80;99.90;;;;;;1867451;75;21066;-79
2022/03/12 06:46:02;;;;;;;9.43;6.45;;;3.90;99.90;;;;;;1863250;75;21467;-80
2022/03/12 06:48:30;;;;;;;10.45;6.55;;;4.10;99.90;;;;;;1860210;75;21085;-80
2022/03/12 06:50:58;;;;;;;12.18;6.50;;;4.20;99.90;;;;;;1862190;75;21168;-82
2022/03/12 06:53:25;;;;;;;15.48;6.35;;;4.40;99.90;;;;;;1863871;75;21462;-80
2022/03/12 06:55:53;;;;;;;10.90;6.62;;;4.30;99.90;;;;;;1874179;76;21233;-78
2022/03/12 06:58:22;;;;;;;13.20;6.72;;;4.30;99.90;;;;;;1866564;76;21176;-79
2022/03/12 07:00:49;;;;;;;9.38;6.03;;;4.40;99.90;;;;;;1859281;76;21519;-78
2022/03/12 07:03:16;;;;;;;13.95;6.67;;;4.60;99.90;;;;;;1864712;75;21067;-78
2022/03/12 07:05:43;;;;;;;9.00;6.53;;;4.80;99.90;;;;;;1861118;75;21076;-78
2022/03/12 07:08:11;;;;;;;12.70;6.40;;;4.80;99.90;;;;;;1861223;75;21042;-77
2022/03/12 07:10:38;;;;;;;12.47;6.25;;;4.90;99.90;;;;;;1835655;77;21051;-77
2022/03/12 07:13:06;;;;;;;12.50;6.30;;;4.90;99.90;;;;;;1859162;76;21265;-77
2022/03/12 07:15:33;;;;;;;14.80;6.60;;;4.90;99.90;;;;;;1865597;76;21181;-78
2022/03/12 07:18:00;;;;;;;8.60;6.58;;;4.80;99.90;;;;;;1867448;75;21135;-76
2022/03/12 07:20:28;;;;;;;11.00;6.47;;;4.70;99.90;;;;;;1870203;76;21051;-75
2022/03/12 07:22:55;;;;;;;16.95;6.12;;;4.70;99.90;;;;;;1861686;75;21524;-75
2022/03/12 07:25:25;;;;;;;11.43;6.22;;;4.70;99.90;;;;;;1864724;76;21185;-75
2022/03/12 07:27:52;;;;;;;10.30;6.67;;;4.90;99.90;;;;;;1870906;76;21304;-78
2022/03/12 07:30:21;;;;;;;11.55;6.60;;;4.80;99.90;;;;;;1862970;76;21538;-76
2022/03/12 07:32:48;;;;;;;14.03;6.58;;;4.80;99.90;;;;;;1853475;75;21075;-76
2022/03/12 07:35:17;;;;;;;8.63;5.95;;;4.70;99.90;;;;;;1865502;75;21078;-78
2022/03/12 07:37:46;;;;;;;11.25;6.42;;;4.90;99.90;;;;;;1872826;75;21077;-83
2022/03/12 07:40:15;;;;;;;14.25;6.55;;;4.90;99.90;;;;;;1863555;75;21176;-76
2022/03/12 07:42:42;;;;;;;18.98;6.78;;;5.10;99.90;;;;;;1861591;75;21447;-78
2022/03/12 07:45:10;;;;;;;14.63;5.80;;;5.10;99.90;;;;;;1865778;76;21145;-75
2022/03/12 07:47:38;;;;;;;12.58;6.83;;;5.20;99.90;;;;;;1862245;75;21155;-77
2022/03/12 07:50:06;;;;;;;12.37;7.30;;;5.30;99.90;;;;;;1866473;75;21153;-75
2022/03/12 07:52:33;;;;;;;13.08;8.00;;;5.40;99.90;;;;;;1869158;76;21467;-76
2022/03/12 07:55:02;;;;;;;9.50;6.50;;;5.40;99.90;;;;;;1860086;75;21075;-77
2022/03/12 07:57:30;;;;;;;13.30;6.70;;;5.50;99.90;;;;;;1861202;76;21087;-76
2022/03/12 07:59:57;;;;;;;10.38;6.62;;;5.60;99.90;;;;;;1860904;76;21142;-76
2022/03/12 08:02:24;;;;;;;11.00;7.00;;;5.60;99.90;;;;;;1868518;75;21123;-76
2022/03/12 08:04:52;;;;;;;14.03;6.42;;;5.80;99.90;;;;;;1862458;75;21093;-76
2022/03/12 08:07:19;;;;;;;13.62;7.05;;;6.00;99.50;;;;;;1860086;76;21183;-79
2022/03/12 08:09:46;;;;;;;10.93;6.70;;;6.10;99.10;;;;;;1841977;77;21133;-79
2022/03/12 08:12:15;;;;;;;16.60;7.10;;;6.20;98.80;;;;;;1865985;76;21074;-78
2022/03/12 08:14:45;;;;;;;10.30;7.12;;;6.30;99.10;;;;;;1866592;76;21047;-78
2022/03/12 08:17:11;;;;;;;10.45;7.08;;;6.40;98.90;;;;;;1864505;75;21072;-81
2022/03/12 08:19:38;;;;;;;11.60;6.87;;;6.40;98.00;;;;;;1866831;75;21160;-79
2022/03/12 08:22:06;;;;;;;12.37;7.00;;;6.30;98.20;;;;;;1867742;76;21079;-78
2022/03/12 08:24:34;;;;;;;23.18;7.17;;;6.40;98.50;;;;;;1869138;75;21164;-75
2022/03/12 08:27:01;;;;;;;9.68;6.83;;;6.50;97.90;;;;;;1868902;75;21145;-79
2022/03/12 08:29:28;;;;;;;13.80;6.95;;;6.80;97.80;;;;;;1863638;75;21073;-81
2022/03/12 08:31:56;;;;;;;15.13;7.80;;;7.20;96.70;;;;;;1860825;76;21075;-79
2022/03/12 08:34:24;;;;;;;17.80;7.58;;;7.10;96.90;;;;;;1865565;76;21075;-79
2022/03/12 08:36:51;;;;;;;15.85;8.00;;;7.20;96.70;;;;;;1867617;75;21067;-78
2022/03/12 08:39:19;;;;;;;13.68;7.67;;;7.50;95.50;;;;;;1864138;75;21077;-79
2022/03/12 08:41:46;;;;;;;13.32;8.38;;;7.70;95.50;;;;;;1866292;76;21078;-78
2022/03/12 08:44:13;;;;;;;12.43;7.67;;;7.90;94.80;;;;;;1862650;75;21133;-82
2022/03/12 08:46:42;;;;;;;17.80;7.90;;;8.30;93.90;;;;;;1866155;75;21083;-76
2022/03/12 08:49:11;;;;;;;12.73;7.45;;;7.80;93.60;;;;;;1870312;76;21059;-81
2022/03/12 08:51:38;;;;;;;12.10;7.17;;;7.80;94.30;;;;;;1866849;75;21156;-81
2022/03/12 08:54:06;;;;;;;14.05;7.15;;;8.10;94.90;;;;;;1860099;75;21080;-81
2022/03/12 08:56:33;;;;;;;13.32;8.13;;;8.80;94.10;;;;;;1868789;75;21439;-77
2022/03/12 08:59:01;;;;;;;14.50;7.62;;;9.20;93.30;;;;;;1859754;75;21535;-82
2022/03/12 09:01:28;;;;;;;15.60;8.75;;;9.50;92.10;;;;;;1859622;75;21341;-84
2022/03/12 09:03:56;;;;;;;10.23;7.10;;;9.30;91.00;;;;;;1865114;75;21072;-82
2022/03/12 09:06:26;;;;;;;16.65;8.05;;;9.50;91.60;;;;;;1862343;75;21213;-80
2022/03/12 09:08:53;;;;;;;17.27;8.13;;;9.30;90.70;;;;;;1859836;76;21114;-81
2022/03/12 09:11:20;;;;;;;21.95;7.78;;;9.70;90.20;;;;;;1874375;76;21047;-81
2022/03/12 09:13:48;;;;;;;20.43;8.13;;;9.40;90.60;;;;;;1862247;75;21155;-81
2022/03/12 09:16:16;;;;;;;17.20;8.23;;;9.70;89.80;;;;;;1859388;75;21087;-83
2022/03/12 09:18:47;;;;;;;11.78;7.78;;;9.30;90.00;;;;;;1863391;76;21088;-81
2022/03/12 09:21:14;;;;;;;14.75;8.10;;;9.40;90.50;;;;;;1871484;76;21448;-81
2022/03/12 09:23:42;;;;;;;17.48;8.48;;;9.10;90.70;;;;;;1861764;75;21496;-81
2022/03/12 09:26:10;;;;;;;13.20;8.40;;;9.50;91.30;;;;;;1860640;75;21185;-83
2022/03/12 09:28:37;;;;;;;14.60;7.95;;;10.30;91.10;;;;;;1864591;75;21142;-81
2022/03/12 09:31:06;;;;;;;13.22;7.97;;;10.70;88.30;;;;;;1867955;75;21067;-81
2022/03/12 09:33:34;;;;;;;12.63;7.72;;;11.40;85.40;;;;;;1872299;75;21075;-80
2022/03/12 09:36:01;;;;;;;13.58;8.38;;;10.80;84.50;;;;;;1869201;75;21048;-82
2022/03/12 09:38:28;;;;;;;12.80;8.15;;;10.90;85.20;;;;;;1869081;75;21071;-81
2022/03/12 09:40:56;;;;;;;14.85;8.15;;;11.00;84.60;;;;;;1861255;75;21082;-81
2022/03/12 09:43:23;;;;;;;12.95;8.50;;;11.50;85.10;;;;;;1862701;75;21114;-80
2022/03/12 09:45:50;;;;;;;20.85;8.73;;;11.80;81.70;;;;;;1868998;76;21702;-80
2022/03/12 09:48:18;;;;;;;19.90;9.18;;;12.00;79.80;;;;;;1874959;75;21072;-81
2022/03/12 09:50:45;;;;;;;14.93;7.85;;;11.30;82.20;;;;;;1866873;76;21121;-81
2022/03/12 09:53:12;;;;;;;12.68;9.05;;;11.70;82.30;;;;;;1866533;75;21112;-81
2022/03/12 09:55:40;;;;;;;19.20;9.05;;;11.80;80.20;;;;;;1866018;75;21188;-81
2022/03/12 09:58:11;;;;;;;14.33;8.70;;;11.90;79.90;;;;;;1864402;75;21068;-82
2022/03/12 10:00:36;;;;;;;15.43;8.95;;;11.40;80.70;;;;;;1866074;76;21065;-81
2022/03/12 10:03:05;;;;;;;17.05;9.65;;;11.80;81.40;;;;;;1869199;75;21067;-77
2022/03/12 10:05:34;;;;;;;19.50;9.20;;;12.20;78.90;;;;;;1871986;76;21094;-84
2022/03/12 10:08:01;;;;;;;21.82;9.73;;;12.10;79.40;;;;;;1867572;75;21515;-84
2022/03/12 10:10:31;;;;;;;22.02;10.05;;;12.60;78.80;;;;;;1874876;76;21149;-79
2022/03/12 10:12:58;;;;;;;;;;;12.90;77.50;;;;;;1872525;75;21467;-76
2022/03/12 10:15:27;;;;;;;15.95;9.73;;;13.60;76.70;;;;;;1860084;75;20116;-78
2022/03/12 10:17:55;;;;;;;18.25;9.83;;;14.40;74.20;;;;;;1862540;75;21208;-81
2022/03/12 10:20:22;;;;;;;16.17;10.32;;;13.80;72.70;;;;;;1860733;75;21080;-81
2022/03/12 10:22:52;;;;;;;15.95;10.20;;;13.30;73.00;;;;;;1860101;75;21145;-80
2022/03/12 10:25:19;;;;;;;18.12;10.50;;;13.50;74.40;;;;;;1833473;76;21164;-82
2022/03/12 10:27:47;;;;;;;21.35;11.63;;;13.50;73.50;;;;;;1868563;75;21407;-83
2022/03/12 10:30:15;;;;;;;19.32;11.00;;;13.30;74.40;;;;;;1873500;75;21075;-82
2022/03/12 10:32:45;;;;;;;16.35;10.72;;;14.00;73.60;;;;;;1859719;75;21112;-82
2022/03/12 10:35:22;;;;;;;15.85;10.78;;;14.30;72.50;;;;;;1865584;75;21123;-85
2022/03/12 10:37:43;;;;;;;16.45;10.48;;;14.60;71.30;;;;;;1860309;75;21120;-84
2022/03/12 10:40:16;;;;;;;17.92;10.55;;;15.10;71.20;;;;;;1859594;75;21108;-87
2022/03/12 10:42:58;;;;;;;19.45;11.05;;;14.60;69.70;;;;;;1863053;75;21199;-85
2022/03/12 10:45:27;;;;;;;16.50;10.50;;;13.80;72.20;;;;;;1873486;76;21459;-85
2022/03/12 10:47:56;;;;;;;20.35;10.18;;;14.00;72.70;;;;;;1861138;75;21200;-85
2022/03/12 10:50:26;;;;;;;16.82;10.30;;;13.90;72.20;;;;;;1869529;76;21121;-82
2022/03/12 10:52:55;;;;;;;21.85;11.03;;;13.80;72.90;;;;;;1870564;75;21102;-85
2022/03/12 10:55:29;;;;;;;19.37;10.85;;;13.70;73.50;;;;;;1861972;75;21254;-81
2022/03/12 10:58:04;;;;;;;22.85;11.00;;;13.90;73.80;;;;;;1854927;75;21070;-79
2022/03/12 11:00:38;;;;;;;14.30;9.88;;;14.10;73.30;;;;;;1871370;75;21547;-80
2022/03/12 11:03:14;;;;;;;16.30;10.65;;;14.80;72.80;;;;;;1863279;75;21087;-81
2022/03/12 11:05:43;;;;;;;18.30;10.30;;;15.10;70.80;;;;;;1868668;75;21090;-80
2022/03/12 11:08:16;;;;;;;23.55;11.15;;;15.20;70.60;;;;;;1856676;76;21231;-79
2022/03/12 11:10:49;;;;;;;13.95;10.10;;;15.50;70.00;;;;;;1859547;75;21079;-79
2022/03/12 11:13:28;;;;;;;14.78;10.65;;;15.30;71.30;;;;;;1868142;74;21105;-79
2022/03/12 11:16:14;;;;;;;23.05;10.72;;;15.90;69.80;;;;;;1850241;76;21164;-80
2022/03/12 11:18:56;;;;;;;18.67;10.28;;;15.90;70.10;;;;;;1875306;75;21233;-81
2022/03/12 11:21:30;;;;;;;15.50;10.25;;;15.60;71.60;;;;;;1876406;74;21126;-81
2022/03/12 11:23:59;;;;;;;15.50;9.98;;;15.50;70.70;;;;;;1872256;75;21216;-80
2022/03/12 11:26:27;;;;;;;15.05;10.75;;;15.80;70.70;;;;;;1864218;76;21148;-81
2022/03/12 11:28:59;;;;;;;19.30;10.58;;;16.40;68.60;;;;;;1863749;75;21483;-80
2022/03/12 11:31:49;;;;;;;21.40;10.10;;;16.20;70.10;;;;;;1868412;75;21225;-79
2022/03/12 11:34:22;;;;;;;17.80;9.63;;;16.90;67.30;;;;;;1860277;75;21048;-80
2022/03/12 11:37:02;;;;;;;16.20;9.43;;;17.30;66.30;;;;;;1871773;75;21063;-80
2022/03/12 11:39:31;;;;;;;11.53;7.12;;;17.60;67.60;;;;;;1863484;75;21458;-81
2022/03/12 11:42:16;;;;;;;13.00;7.25;;;17.60;72.90;;;;;;1861466;75;21086;-80
2022/03/12 11:48:08;;;;;;;8.30;6.15;;;17.30;75.20;;;;;;1867469;76;21079;-77
2022/03/12 11:50:36;;;;;;;10.35;6.53;;;17.60;76.40;;;;;;1864161;75;21077;-79
2022/03/12 11:53:04;;;;;;;15.45;7.58;;;17.60;76.60;;;;;;1856346;75;21530;-77
2022/03/12 11:55:32;;;;;;;9.50;5.95;;;18.10;75.50;;;;;;1863885;76;21148;-79
2022/03/12 11:58:03;;;;;;;8.13;5.70;;;17.80;75.20;;;;;;1864179;75;21132;-79
2022/03/12 12:00:34;;;;;;;7.03;5.53;;;17.10;77.30;;;;;;1874888;75;21052;-82
2022/03/12 12:03:01;;;;;;;7.62;5.80;;;17.10;79.40;;;;;;1834696;77;21463;-80
2022/03/12 12:05:31;;;;;;;7.47;4.78;;;18.10;76.70;;;;;;1866401;75;21139;-79
2022/03/12 12:07:58;;;;;;;10.78;4.20;;;18.40;76.70;;;;;;1864895;75;21070;-79
2022/03/12 12:10:29;;;;;;;12.75;6.17;;;17.60;79.50;;;;;;1871804;75;21059;-80
2022/03/12 12:12:57;;;;;;;9.10;6.70;;;18.00;73.40;;;;;;1871937;76;21202;-78
2022/03/12 12:15:31;;;;;;;9.45;6.22;;;18.70;71.30;;;;;;1874001;76;21336;-78
2022/03/12 12:17:56;;;;;;;10.63;6.45;;;18.40;71.30;;;;;;1861219;75;21156;-78
2022/03/12 12:20:23;;;;;;;13.08;4.85;;;18.80;71.60;;;;;;1876449;75;21518;-78
2022/03/12 12:22:51;;;;;;;7.00;4.95;;;18.30;76.10;;;;;;1874380;75;21530;-77
2022/03/12 12:25:19;;;;;;;8.53;5.87;;;17.90;77.10;;;;;;1866280;75;21080;-77
2022/03/12 12:27:50;;;;;;;12.40;6.05;;;18.00;75.00;;;;;;1866487;76;21044;-79
2022/03/12 12:30:18;;;;;;;;;;;18.70;74.70;;;;;;1872525;76;21064;-79
2022/03/12 12:32:49;;;;;;;9.78;5.70;;;20.00;70.90;;;;;;1842065;77;20122;-80
2022/03/12 12:35:20;;;;;;;7.53;4.08;;;19.70;70.10;;;;;;1861870;75;21061;-79
2022/03/12 12:37:51;;;;;;;11.93;5.30;;;19.40;73.60;;;;;;1861876;76;21065;-79
2022/03/12 12:40:21;;;;;;;11.97;5.47;;;19.10;73.20;;;;;;1872649;76;21070;-79
2022/03/12 12:42:49;;;;;;;9.55;5.78;;;19.10;71.10;;;;;;1871313;76;21084;-79
2022/03/12 12:45:26;;;;;;;8.85;6.50;;;17.90;75.30;;;;;;1859491;75;21462;-78
2022/03/12 12:48:00;;;;;;;11.03;6.70;;;18.70;72.30;;;;;;1852884;75;21123;-78
2022/03/12 12:50:28;;;;;;;10.35;6.62;;;19.60;69.40;;;;;;1854348;75;21046;-79
2022/03/12 12:53:14;;;;;;;11.28;6.97;;;19.10;70.60;;;;;;1863228;75;21094;-79
2022/03/12 12:55:43;;;;;;;11.35;6.95;;;19.00;71.20;;;;;;1865458;75;21414;-78
2022/03/12 12:58:10;;;;;;;11.20;6.30;;;19.20;69.80;;;;;;1859751;75;21146;-79